Logan Township, New Jersey
Current Conditions -  °F | °C
As of 3:54 PM on Thursday 20 Nov 2014 (Local Time) from KPHL Reporting Station
Broken Clouds Broken Clouds  
Wind Chill: 41°   Ceiling: 7000
Heat Index: 47°   Visibility: 10mi
Dew Point: 23°   Wind: 14mph
Humidity: 39%   Direction: 290°WNW
Pressure: 29.89"   Gusts: NA
Location:  39.757°N, 75.3338°W
Report Text: KPHL 202054Z 29012KT 10SM BKN070 BKN250 08/M05 A2989 RMK AO2 SLP122 T00831050 55005
Loading
Personal Weather Stations






























Interactive Weather Map New forecast layout! Learn more

10-Day Weather Forecast

Advertisements
Track Severe Weather on mobile